createdAt,value
2018-07-24T00:00:01.524Z,0.00
2018-07-24T00:01:01.558Z,0.00
2018-07-24T00:02:01.754Z,0.00
2018-07-24T00:03:01.588Z,0.00
2018-07-24T00:04:01.591Z,0.00
2018-07-24T00:05:01.593Z,0.00
2018-07-24T00:06:01.629Z,0.00
2018-07-24T00:07:01.785Z,0.00
2018-07-24T00:08:01.650Z,0.00
2018-07-24T00:09:01.665Z,0.00
2018-07-24T00:10:01.683Z,0.00
2018-07-24T00:11:01.746Z,0.00
2018-07-24T00:12:01.808Z,0.00
2018-07-24T00:13:01.720Z,0.00
2018-07-24T00:14:01.741Z,0.00
2018-07-24T00:15:01.746Z,0.00
2018-07-24T00:16:01.769Z,0.00
2018-07-24T00:17:01.930Z,0.00
2018-07-24T00:18:01.788Z,0.00
2018-07-24T00:19:01.802Z,0.00
2018-07-24T00:20:01.818Z,0.00
2018-07-24T00:21:01.816Z,0.00
2018-07-24T00:22:01.999Z,0.00
2018-07-24T00:23:01.863Z,0.00
2018-07-24T00:24:01.876Z,0.00
2018-07-24T00:25:01.887Z,0.00
2018-07-24T00:26:01.896Z,0.00
2018-07-24T00:27:01.999Z,0.00
2018-07-24T00:28:01.932Z,0.00
2018-07-24T00:29:01.944Z,0.00
2018-07-24T00:30:01.953Z,0.00
2018-07-24T00:31:01.963Z,0.00
2018-07-24T00:32:02.118Z,0.00
2018-07-24T00:33:01.996Z,0.00
2018-07-24T00:34:01.988Z,0.00
2018-07-24T00:35:02.032Z,0.00
2018-07-24T00:36:02.035Z,0.00
2018-07-24T00:37:02.053Z,0.00
2018-07-24T00:38:02.212Z,0.00
2018-07-24T00:39:02.073Z,0.00
2018-07-24T00:40:02.091Z,0.00
2018-07-24T00:41:02.106Z,0.00
2018-07-24T00:42:02.098Z,0.00
2018-07-24T00:43:02.288Z,0.00
2018-07-24T00:44:02.141Z,0.00
2018-07-24T00:45:02.158Z,0.00
2018-07-24T00:46:02.170Z,0.00
2018-07-24T00:47:02.188Z,0.00
2018-07-24T00:48:02.303Z,0.00
2018-07-24T00:49:02.200Z,0.00
2018-07-24T00:50:02.227Z,0.00
2018-07-24T00:51:02.239Z,0.00
2018-07-24T00:52:02.262Z,0.00
2018-07-24T00:53:02.417Z,0.00
2018-07-24T00:54:02.335Z,0.00
2018-07-24T00:55:02.293Z,0.00
2018-07-24T00:56:02.311Z,0.00
2018-07-24T00:57:02.319Z,0.00
2018-07-24T00:58:02.421Z,0.00
2018-07-24T00:59:02.344Z,0.00
2018-07-24T01:00:02.342Z,0.00
2018-07-24T01:01:02.354Z,0.00
2018-07-24T01:02:02.393Z,0.00
2018-07-24T01:03:02.553Z,0.00
2018-07-24T01:04:02.416Z,0.00
2018-07-24T01:05:02.407Z,0.00
2018-07-24T01:06:02.440Z,0.00
2018-07-24T01:07:02.452Z,0.00
2018-07-24T01:08:02.565Z,0.00
2018-07-24T01:09:02.476Z,0.00
2018-07-24T01:10:02.506Z,0.00
2018-07-24T01:11:02.512Z,0.00
2018-07-24T01:12:02.519Z,0.00
2018-07-24T01:13:02.687Z,0.00
2018-07-24T01:14:02.542Z,0.00
2018-07-24T01:15:02.555Z,0.00
2018-07-24T01:16:02.576Z,0.00
2018-07-24T01:17:02.566Z,0.00
2018-07-24T01:18:02.752Z,0.00
2018-07-24T01:19:02.608Z,0.00
2018-07-24T01:20:02.621Z,0.00
2018-07-24T01:21:02.636Z,0.00
2018-07-24T01:22:02.656Z,0.00
2018-07-24T01:23:02.917Z,0.00
2018-07-24T01:24:02.679Z,0.00
2018-07-24T01:25:02.687Z,0.00
2018-07-24T01:26:02.705Z,0.00
2018-07-24T01:27:02.715Z,0.00
2018-07-24T01:28:02.881Z,0.00
2018-07-24T01:29:02.730Z,0.00
2018-07-24T01:30:02.748Z,0.00
2018-07-24T01:31:02.765Z,0.00
2018-07-24T01:32:02.782Z,0.00
2018-07-24T01:33:02.938Z,0.00
2018-07-24T01:34:02.809Z,0.00
2018-07-24T01:35:02.823Z,0.00
2018-07-24T01:36:02.833Z,0.00
2018-07-24T01:37:02.851Z,0.00
2018-07-24T01:38:03.016Z,0.00
2018-07-24T01:39:02.876Z,0.00
2018-07-24T01:40:02.865Z,0.00
2018-07-24T01:41:02.882Z,0.00
2018-07-24T01:42:02.917Z,0.00
2018-07-24T01:43:03.079Z,0.00
2018-07-24T01:44:02.940Z,0.00
2018-07-24T01:45:02.936Z,0.00
2018-07-24T01:46:02.967Z,0.00
2018-07-24T01:47:02.983Z,0.00
2018-07-24T01:48:03.001Z,0.00
2018-07-24T01:49:03.088Z,0.00
2018-07-24T01:50:03.024Z,0.00
2018-07-24T01:51:03.433Z,0.00
2018-07-24T01:52:03.043Z,0.00
2018-07-24T01:53:03.058Z,0.00
2018-07-24T01:54:03.377Z,0.00
2018-07-24T01:55:03.086Z,0.00
2018-07-24T01:56:03.480Z,0.00
2018-07-24T01:57:03.113Z,0.00
2018-07-24T01:58:03.125Z,0.00
2018-07-24T01:59:03.281Z,0.00
2018-07-24T02:00:03.151Z,0.00
2018-07-24T02:01:03.162Z,0.00
2018-07-24T02:02:03.178Z,0.00
2018-07-24T02:03:03.193Z,0.00
2018-07-24T02:04:03.431Z,0.00
2018-07-24T02:05:03.191Z,0.00
2018-07-24T02:06:03.220Z,0.00
2018-07-24T02:07:03.240Z,0.00
2018-07-24T02:08:03.256Z,0.00
2018-07-24T02:09:03.426Z,0.00
2018-07-24T02:10:03.275Z,0.00
2018-07-24T02:11:03.286Z,0.00
2018-07-24T02:12:03.297Z,0.00
2018-07-24T02:13:03.315Z,0.00
2018-07-24T02:14:03.479Z,0.00
2018-07-24T02:15:03.335Z,0.00
2018-07-24T02:16:03.358Z,0.00
2018-07-24T02:17:03.371Z,0.00
2018-07-24T02:18:03.382Z,0.00
2018-07-24T02:19:03.486Z,0.00
2018-07-24T02:20:03.386Z,0.00
2018-07-24T02:21:03.413Z,0.00
2018-07-24T02:22:03.433Z,0.00
2018-07-24T02:23:03.444Z,0.00
2018-07-24T02:24:03.709Z,0.00
2018-07-24T02:25:03.470Z,0.00
2018-07-24T02:26:03.481Z,0.00
2018-07-24T02:27:03.493Z,0.00
2018-07-24T02:28:03.502Z,0.00
2018-07-24T02:29:03.675Z,0.00
2018-07-24T02:30:03.529Z,0.00
2018-07-24T02:31:03.548Z,0.00
2018-07-24T02:32:03.543Z,0.00
2018-07-24T02:33:03.566Z,0.00
2018-07-24T02:34:03.730Z,0.00
2018-07-24T02:35:03.592Z,0.00
2018-07-24T02:36:03.605Z,0.00
2018-07-24T02:37:03.629Z,0.00
2018-07-24T02:38:03.640Z,0.00
2018-07-24T02:39:03.798Z,0.00
2018-07-24T02:40:03.659Z,0.00
2018-07-24T02:41:03.663Z,0.00
2018-07-24T02:42:03.897Z,0.00
2018-07-24T02:43:03.703Z,0.00
2018-07-24T02:44:03.969Z,0.00
2018-07-24T02:45:03.727Z,0.00
2018-07-24T02:46:03.721Z,0.00
2018-07-24T02:47:03.752Z,0.00
2018-07-24T02:48:03.763Z,0.00
2018-07-24T02:49:04.011Z,0.00
2018-07-24T02:50:03.790Z,0.00
2018-07-24T02:51:03.795Z,0.00
2018-07-24T02:52:03.816Z,0.00
2018-07-24T02:53:03.830Z,0.00
2018-07-24T02:54:03.986Z,0.00
2018-07-24T02:55:03.851Z,0.00
2018-07-24T02:56:03.865Z,0.00
2018-07-24T02:57:03.877Z,0.00
2018-07-24T02:58:03.887Z,0.00
2018-07-24T02:59:04.150Z,0.00
2018-07-24T03:00:03.912Z,0.00
2018-07-24T03:01:03.923Z,0.00
2018-07-24T03:02:03.945Z,0.00
2018-07-24T03:03:03.955Z,0.00
2018-07-24T03:04:03.961Z,0.00
2018-07-24T03:05:04.129Z,0.00
2018-07-24T03:06:03.991Z,0.00
2018-07-24T03:07:03.995Z,0.00
2018-07-24T03:08:04.012Z,0.00
2018-07-24T03:09:04.029Z,0.00
2018-07-24T03:10:04.044Z,0.00
2018-07-24T03:11:04.200Z,0.00
2018-07-24T03:12:04.071Z,0.00
2018-07-24T03:13:04.075Z,0.00
2018-07-24T03:14:04.162Z,0.00
2018-07-24T03:15:04.105Z,0.00
2018-07-24T03:16:04.295Z,0.00
2018-07-24T03:17:04.112Z,0.00
2018-07-24T03:18:04.141Z,0.00
2018-07-24T03:19:04.162Z,0.00
2018-07-24T03:20:04.169Z,0.00
2018-07-24T03:21:04.433Z,0.00
2018-07-24T03:22:04.258Z,0.00
2018-07-24T03:23:04.203Z,0.00
2018-07-24T03:24:04.215Z,0.00
2018-07-24T03:25:04.225Z,0.00
2018-07-24T03:26:04.397Z,0.00
2018-07-24T03:27:04.250Z,0.00
2018-07-24T03:28:04.272Z,0.00
2018-07-24T03:29:04.275Z,0.00
2018-07-24T03:30:04.294Z,0.00
2018-07-24T03:31:04.454Z,0.00
2018-07-24T03:32:04.314Z,0.00
2018-07-24T03:33:04.325Z,0.00
2018-07-24T03:34:04.339Z,0.00
2018-07-24T03:35:04.355Z,0.00
2018-07-24T03:36:04.516Z,0.00
2018-07-24T03:37:04.380Z,0.00
2018-07-24T03:38:04.373Z,0.00
2018-07-24T03:39:04.410Z,0.00
2018-07-24T03:40:04.421Z,0.00
2018-07-24T03:41:04.561Z,0.00
2018-07-24T03:42:04.450Z,0.00
2018-07-24T03:43:04.437Z,0.00
2018-07-24T03:44:04.448Z,0.00
2018-07-24T03:45:04.500Z,0.00
2018-07-24T03:46:04.645Z,0.00
2018-07-24T03:47:04.480Z,0.00
2018-07-24T03:48:04.515Z,0.00
2018-07-24T03:49:04.524Z,0.00
2018-07-24T03:50:04.543Z,0.00
2018-07-24T03:51:04.702Z,0.00
2018-07-24T03:52:04.562Z,0.00
2018-07-24T03:53:04.561Z,0.00
2018-07-24T03:54:04.789Z,0.00
2018-07-24T03:55:04.802Z,0.00
2018-07-24T03:56:04.766Z,0.00
2018-07-24T03:57:04.625Z,0.00
2018-07-24T03:58:04.642Z,0.00
2018-07-24T03:59:04.655Z,0.00
2018-07-24T04:00:04.644Z,0.00
2018-07-24T04:01:04.824Z,0.00
2018-07-24T04:02:04.690Z,0.00
2018-07-24T04:03:04.749Z,0.00
2018-07-24T04:04:04.727Z,0.00
2018-07-24T04:05:04.722Z,0.00
2018-07-24T04:06:04.984Z,0.00
2018-07-24T04:07:04.726Z,0.00
2018-07-24T04:08:04.755Z,0.00
2018-07-24T04:09:04.772Z,0.00
2018-07-24T04:10:04.786Z,0.00
2018-07-24T04:11:05.043Z,0.00
2018-07-24T04:12:04.804Z,0.00
2018-07-24T04:13:04.822Z,0.00
2018-07-24T04:14:04.810Z,0.00
2018-07-24T04:15:04.844Z,0.00
2018-07-24T04:16:04.853Z,0.00
2018-07-24T04:17:05.098Z,0.00
2018-07-24T04:18:04.877Z,0.00
2018-07-24T04:19:04.875Z,0.00
2018-07-24T04:20:04.889Z,0.00
2018-07-24T04:21:04.894Z,0.00
2018-07-24T04:22:04.929Z,0.00
2018-07-24T04:23:05.436Z,0.00
2018-07-24T04:24:04.951Z,0.00
2018-07-24T04:25:04.965Z,0.00
2018-07-24T04:26:04.968Z,0.00
2018-07-24T04:27:04.988Z,0.00
2018-07-24T04:28:04.998Z,0.00
2018-07-24T04:29:05.296Z,0.00
2018-07-24T04:30:05.072Z,0.00
2018-07-24T04:31:05.036Z,0.00
2018-07-24T04:32:05.048Z,0.00
2018-07-24T04:33:05.051Z,0.00
2018-07-24T04:34:05.316Z,0.00
2018-07-24T04:35:05.060Z,0.00
2018-07-24T04:36:05.085Z,0.00
2018-07-24T04:37:05.102Z,0.00
2018-07-24T04:38:05.121Z,0.00
2018-07-24T04:39:05.271Z,0.00
2018-07-24T04:40:05.141Z,0.00
2018-07-24T04:41:05.131Z,0.00
2018-07-24T04:42:05.144Z,0.00
2018-07-24T04:43:05.171Z,0.00
2018-07-24T04:44:05.272Z,0.00
2018-07-24T04:45:05.196Z,0.00
2018-07-24T04:46:05.209Z,0.00
2018-07-24T04:47:05.202Z,0.00
2018-07-24T04:48:05.231Z,0.00
2018-07-24T04:49:05.375Z,0.00
2018-07-24T04:50:05.260Z,0.00
2018-07-24T04:51:05.269Z,0.00
2018-07-24T04:52:05.276Z,0.00
2018-07-24T04:53:05.295Z,0.00
2018-07-24T04:54:05.437Z,0.00
2018-07-24T04:55:05.315Z,0.00
2018-07-24T04:56:05.331Z,0.00
2018-07-24T04:57:05.323Z,0.00
2018-07-24T04:58:05.367Z,0.00
2018-07-24T04:59:05.459Z,0.00
2018-07-24T05:00:05.383Z,0.00
2018-07-24T05:01:05.370Z,0.00
2018-07-24T05:02:05.397Z,0.00
2018-07-24T05:03:05.418Z,0.00
2018-07-24T05:04:05.575Z,0.00
2018-07-24T05:05:05.432Z,0.00
2018-07-24T05:06:05.449Z,0.00
2018-07-24T05:07:05.442Z,0.00
2018-07-24T05:08:05.472Z,0.00
2018-07-24T05:09:05.676Z,0.00
2018-07-24T05:10:05.495Z,0.00
2018-07-24T05:11:05.513Z,0.00
2018-07-24T05:12:05.506Z,0.00
2018-07-24T05:13:05.531Z,0.00
2018-07-24T05:14:05.693Z,0.00
2018-07-24T05:15:05.558Z,0.00
2018-07-24T05:16:05.570Z,0.00
2018-07-24T05:17:05.582Z,0.00
2018-07-24T05:18:05.594Z,0.00
2018-07-24T05:19:05.737Z,0.00
2018-07-24T05:20:05.601Z,0.00
2018-07-24T05:21:05.625Z,0.00
2018-07-24T05:22:05.641Z,0.00
2018-07-24T05:23:05.657Z,0.00
2018-07-24T05:24:05.757Z,0.00
2018-07-24T05:25:05.687Z,0.00
2018-07-24T05:26:05.886Z,0.00
2018-07-24T05:27:05.691Z,0.00
2018-07-24T05:28:05.691Z,0.00
2018-07-24T05:29:05.875Z,0.00
2018-07-24T05:30:05.727Z,0.00
2018-07-24T05:31:05.744Z,0.00
2018-07-24T05:32:05.753Z,0.00
2018-07-24T05:33:05.783Z,0.00
2018-07-24T05:34:05.929Z,0.00
2018-07-24T05:35:05.792Z,0.00
2018-07-24T05:36:05.803Z,0.00
2018-07-24T05:37:05.796Z,0.00
2018-07-24T05:38:05.826Z,0.00
2018-07-24T05:39:06.067Z,0.00
2018-07-24T05:40:05.845Z,0.00
2018-07-24T05:41:05.838Z,0.00
2018-07-24T05:42:05.872Z,0.00
2018-07-24T05:43:05.875Z,0.00
2018-07-24T05:44:05.888Z,0.00
2018-07-24T05:45:06.053Z,0.00
2018-07-24T05:46:05.912Z,0.00
2018-07-24T05:47:05.925Z,0.00
2018-07-24T05:48:05.933Z,0.00
2018-07-24T05:49:05.953Z,0.00
2018-07-24T05:50:05.967Z,0.00
2018-07-24T05:51:06.068Z,0.00
2018-07-24T05:52:05.990Z,0.00
2018-07-24T05:53:05.991Z,0.00
2018-07-24T05:54:05.986Z,0.00
2018-07-24T05:55:06.013Z,0.00
2018-07-24T05:56:06.114Z,0.00
2018-07-24T05:57:06.044Z,0.00
2018-07-24T05:58:06.053Z,0.00
2018-07-24T05:59:06.063Z,0.00
2018-07-24T06:00:06.073Z,0.00
2018-07-24T06:01:06.188Z,0.00
2018-07-24T06:02:06.100Z,0.00
2018-07-24T06:03:06.114Z,0.00
2018-07-24T06:04:06.121Z,0.00
2018-07-24T06:05:06.126Z,0.00
2018-07-24T06:06:06.289Z,0.00
2018-07-24T06:07:06.153Z,0.00
2018-07-24T06:08:06.170Z,0.00
2018-07-24T06:09:06.175Z,0.00
2018-07-24T06:10:06.194Z,0.00
2018-07-24T06:11:06.344Z,0.00
2018-07-24T06:12:06.204Z,0.00
2018-07-24T06:13:06.221Z,0.00
2018-07-24T06:14:06.233Z,0.00
2018-07-24T06:15:06.243Z,0.00
2018-07-24T06:16:06.404Z,0.00
2018-07-24T06:17:06.352Z,0.00
2018-07-24T06:18:06.281Z,0.00
2018-07-24T06:19:06.286Z,0.00
2018-07-24T06:20:06.300Z,0.00
2018-07-24T06:21:06.460Z,0.00
2018-07-24T06:22:06.329Z,0.00
2018-07-24T06:23:06.335Z,0.00
2018-07-24T06:24:06.349Z,0.00
2018-07-24T06:25:06.337Z,0.00
2018-07-24T06:26:06.597Z,0.00
2018-07-24T06:27:06.360Z,0.00
2018-07-24T06:28:06.388Z,0.00
2018-07-24T06:29:06.445Z,0.00
2018-07-24T06:30:06.415Z,0.00
2018-07-24T06:31:06.575Z,0.00
2018-07-24T06:32:06.439Z,0.00
2018-07-24T06:33:06.449Z,0.00
2018-07-24T06:34:06.442Z,0.00
2018-07-24T06:35:06.538Z,0.00
2018-07-24T06:36:06.577Z,0.00
2018-07-24T06:37:06.493Z,0.00
2018-07-24T06:38:06.502Z,0.00
2018-07-24T06:39:06.511Z,0.00
2018-07-24T06:40:06.518Z,0.00
2018-07-24T06:41:06.687Z,0.00
2018-07-24T06:42:06.551Z,0.00
2018-07-24T06:43:06.556Z,0.00
2018-07-24T06:44:06.571Z,0.00
2018-07-24T06:45:06.574Z,0.00
2018-07-24T06:46:06.686Z,0.00
2018-07-24T06:47:06.604Z,0.00
2018-07-24T06:48:06.616Z,0.00
2018-07-24T06:49:06.605Z,0.00
2018-07-24T06:50:06.635Z,0.00
2018-07-24T06:51:06.903Z,0.00
2018-07-24T06:52:06.653Z,0.00
2018-07-24T06:53:06.673Z,0.00
2018-07-24T06:54:06.662Z,0.00
2018-07-24T06:55:06.689Z,0.00
2018-07-24T06:56:06.807Z,0.00
2018-07-24T06:57:06.730Z,0.00
2018-07-24T06:58:06.723Z,0.00
2018-07-24T06:59:06.735Z,0.00
2018-07-24T07:00:06.743Z,0.00
2018-07-24T07:01:06.908Z,0.00
2018-07-24T07:02:06.778Z,0.00
2018-07-24T07:03:06.778Z,0.00
2018-07-24T07:04:06.795Z,0.00
2018-07-24T07:05:06.856Z,0.00
2018-07-24T07:06:06.966Z,0.00
2018-07-24T07:07:06.822Z,0.00
2018-07-24T07:08:06.841Z,0.00
2018-07-24T07:09:06.849Z,0.00
2018-07-24T07:10:06.875Z,0.00
2018-07-24T07:11:07.023Z,0.00
2018-07-24T07:12:06.881Z,0.00
2018-07-24T07:13:06.935Z,0.00
2018-07-24T07:14:06.885Z,0.00
2018-07-24T07:15:06.915Z,0.00
2018-07-24T07:16:06.927Z,0.00
2018-07-24T07:17:07.067Z,0.00
2018-07-24T07:18:06.956Z,0.00
2018-07-24T07:19:06.959Z,0.00
2018-07-24T07:20:06.976Z,0.00
2018-07-24T07:21:06.983Z,0.00
2018-07-24T07:22:06.992Z,0.00
2018-07-24T07:23:07.109Z,0.00
2018-07-24T07:24:07.018Z,0.00
2018-07-24T07:25:07.031Z,0.00
2018-07-24T07:26:07.101Z,0.00
2018-07-24T07:27:07.028Z,0.00
2018-07-24T07:28:07.211Z,0.00
2018-07-24T07:29:07.126Z,0.00
2018-07-24T07:30:07.066Z,0.00
2018-07-24T07:31:07.094Z,0.00
2018-07-24T07:32:07.136Z,0.00
2018-07-24T07:33:07.270Z,0.00
2018-07-24T07:34:07.126Z,0.00
2018-07-24T07:35:07.143Z,0.00
2018-07-24T07:36:07.128Z,0.00
2018-07-24T07:37:07.149Z,0.00
2018-07-24T07:38:07.325Z,0.00
2018-07-24T07:39:07.193Z,0.00
2018-07-24T07:40:07.194Z,0.00
2018-07-24T07:41:07.206Z,0.00
2018-07-24T07:42:07.201Z,0.00
2018-07-24T07:43:07.382Z,0.00
2018-07-24T07:44:07.246Z,0.00
2018-07-24T07:45:07.248Z,0.00
2018-07-24T07:46:07.283Z,0.00
2018-07-24T07:47:07.272Z,0.00
2018-07-24T07:48:07.430Z,0.00
2018-07-24T07:49:07.294Z,0.00
2018-07-24T07:50:07.315Z,0.00
2018-07-24T07:51:07.317Z,0.00
2018-07-24T07:52:07.333Z,0.00
2018-07-24T07:53:07.591Z,0.00
2018-07-24T07:54:07.351Z,0.00
2018-07-24T07:55:07.365Z,0.00
2018-07-24T07:56:07.369Z,0.00
2018-07-24T07:57:07.364Z,0.00
2018-07-24T07:58:07.547Z,0.00
2018-07-24T07:59:07.402Z,0.00
2018-07-24T08:00:07.418Z,0.00
2018-07-24T08:01:07.431Z,0.00
2018-07-24T08:02:07.444Z,0.00
2018-07-24T08:03:07.553Z,0.00
2018-07-24T08:04:07.447Z,0.00
2018-07-24T08:05:07.473Z,0.00
2018-07-24T08:06:07.463Z,0.00
2018-07-24T08:07:07.499Z,0.00
2018-07-24T08:08:07.662Z,0.00
2018-07-24T08:09:07.517Z,0.00
2018-07-24T08:10:07.531Z,0.00
2018-07-24T08:11:07.542Z,0.00
2018-07-24T08:12:07.546Z,0.00
2018-07-24T08:13:07.698Z,0.00
2018-07-24T08:14:07.602Z,0.00
2018-07-24T08:15:07.590Z,0.00
2018-07-24T08:16:07.596Z,0.00
2018-07-24T08:17:07.607Z,0.00
2018-07-24T08:18:07.764Z,0.00
2018-07-24T08:19:07.635Z,0.00
2018-07-24T08:20:07.635Z,0.00
2018-07-24T08:21:07.651Z,0.00
2018-07-24T08:22:07.665Z,0.00
2018-07-24T08:23:07.819Z,0.00
2018-07-24T08:24:07.684Z,0.00
2018-07-24T08:25:07.694Z,0.00
2018-07-24T08:26:07.691Z,0.00
2018-07-24T08:27:07.719Z,0.00
2018-07-24T08:28:07.866Z,0.00
2018-07-24T08:29:07.741Z,0.00
2018-07-24T08:30:07.752Z,0.00
2018-07-24T08:31:07.759Z,0.00
2018-07-24T08:32:07.771Z,0.00
2018-07-24T08:33:07.951Z,0.00
2018-07-24T08:34:07.794Z,0.00
2018-07-24T08:35:07.803Z,0.00
2018-07-24T08:36:07.814Z,0.00
2018-07-24T08:37:07.825Z,0.00
2018-07-24T08:38:08.000Z,0.00
2018-07-24T08:39:07.852Z,0.00
2018-07-24T08:40:07.862Z,0.00
2018-07-24T08:41:07.848Z,0.00
2018-07-24T08:42:08.078Z,0.00
2018-07-24T08:43:07.873Z,0.00
2018-07-24T08:44:08.038Z,0.00
2018-07-24T08:45:07.914Z,0.00
2018-07-24T08:46:07.929Z,0.00
2018-07-24T08:47:07.915Z,0.00
2018-07-24T08:48:07.955Z,0.00
2018-07-24T08:49:07.959Z,0.00
2018-07-24T08:50:08.219Z,0.00
2018-07-24T08:51:08.176Z,0.00
2018-07-24T08:52:07.987Z,0.00
2018-07-24T08:53:08.189Z,0.00
2018-07-24T08:54:08.119Z,0.00
2018-07-24T08:55:08.272Z,0.00
2018-07-24T08:56:08.033Z,0.00
2018-07-24T08:57:08.046Z,0.00
2018-07-24T08:58:08.054Z,0.00
2018-07-24T08:59:08.062Z,0.00
2018-07-24T09:00:08.225Z,0.00
2018-07-24T09:01:08.082Z,0.00
2018-07-24T09:02:08.099Z,0.00
2018-07-24T09:03:08.122Z,0.00
2018-07-24T09:04:08.164Z,0.00
2018-07-24T09:05:08.286Z,0.00
2018-07-24T09:06:08.141Z,0.00
2018-07-24T09:07:08.153Z,0.00
2018-07-24T09:08:08.140Z,0.00
2018-07-24T09:09:08.158Z,0.00
2018-07-24T09:10:08.354Z,0.00
2018-07-24T09:11:08.205Z,0.00
2018-07-24T09:12:08.216Z,0.00
2018-07-24T09:13:08.223Z,0.00
2018-07-24T09:14:08.232Z,0.00
2018-07-24T09:15:08.395Z,0.00
2018-07-24T09:16:08.249Z,0.00
2018-07-24T09:17:08.255Z,0.00
2018-07-24T09:18:08.279Z,0.00
2018-07-24T09:19:08.287Z,0.00
2018-07-24T09:20:08.382Z,0.00
2018-07-24T09:21:08.313Z,0.00
2018-07-24T09:22:08.325Z,0.00
2018-07-24T09:23:08.333Z,0.00
2018-07-24T09:24:08.350Z,0.00
2018-07-24T09:25:08.506Z,0.00
2018-07-24T09:26:08.367Z,0.00
2018-07-24T09:27:08.434Z,0.00
2018-07-24T09:28:08.395Z,0.00
2018-07-24T09:29:08.398Z,0.00
2018-07-24T09:30:08.519Z,0.00
2018-07-24T09:31:08.428Z,0.00
2018-07-24T09:32:08.500Z,0.00
2018-07-24T09:33:08.435Z,0.00
2018-07-24T09:34:08.456Z,0.00
2018-07-24T09:35:08.726Z,0.00
2018-07-24T09:36:08.479Z,0.00
2018-07-24T09:37:08.497Z,0.00
2018-07-24T09:38:08.499Z,0.00
2018-07-24T09:39:08.513Z,0.00
2018-07-24T09:40:08.782Z,0.00
2018-07-24T09:41:08.545Z,0.00
2018-07-24T09:42:08.549Z,0.00
2018-07-24T09:43:08.560Z,0.00
2018-07-24T09:44:08.574Z,0.00
2018-07-24T09:45:08.836Z,0.00
2018-07-24T09:46:08.603Z,0.00
2018-07-24T09:47:08.609Z,0.00
2018-07-24T09:48:08.627Z,0.00
2018-07-24T09:49:08.631Z,0.00
2018-07-24T09:50:08.797Z,0.00
2018-07-24T09:51:08.666Z,0.00
2018-07-24T09:52:08.672Z,0.00
2018-07-24T09:53:08.681Z,0.00
2018-07-24T09:54:08.702Z,5.63
2018-07-24T09:55:08.866Z,5.63
2018-07-24T09:56:08.719Z,5.63
2018-07-24T09:57:08.727Z,5.63
2018-07-24T09:58:08.744Z,5.63
2018-07-24T09:59:08.766Z,5.63
2018-07-24T10:00:08.917Z,5.63
2018-07-24T10:01:08.771Z,5.63
2018-07-24T10:02:08.790Z,11.25
2018-07-24T10:03:08.802Z,11.25
2018-07-24T10:04:08.815Z,11.25
2018-07-24T10:05:08.987Z,11.25
2018-07-24T10:06:08.844Z,11.25
2018-07-24T10:07:08.849Z,11.25
2018-07-24T10:08:08.858Z,11.25
2018-07-24T10:09:08.853Z,11.25
2018-07-24T10:10:08.882Z,11.25
2018-07-24T10:11:08.998Z,11.25
2018-07-24T10:12:08.948Z,11.25
2018-07-24T10:13:08.991Z,16.88
2018-07-24T10:14:08.939Z,16.88
2018-07-24T10:15:08.950Z,16.88
2018-07-24T10:16:08.957Z,16.88
2018-07-24T10:17:09.115Z,22.50
2018-07-24T10:18:08.982Z,22.50
2018-07-24T10:19:09.001Z,22.50
2018-07-24T10:20:09.002Z,28.13
2018-07-24T10:21:09.017Z,28.13
2018-07-24T10:22:09.163Z,28.13
2018-07-24T10:23:09.042Z,28.13
2018-07-24T10:24:09.058Z,33.75
2018-07-24T10:25:09.052Z,33.75
2018-07-24T10:26:09.055Z,33.75
2018-07-24T10:27:09.337Z,33.75
2018-07-24T10:28:09.098Z,33.75
2018-07-24T10:29:09.121Z,33.75
2018-07-24T10:30:09.104Z,39.38
2018-07-24T10:31:09.194Z,39.38
2018-07-24T10:32:09.284Z,45.00
2018-07-24T10:33:09.160Z,45.00
2018-07-24T10:34:09.176Z,45.00
2018-07-24T10:35:09.182Z,50.63
2018-07-24T10:36:09.200Z,56.25
2018-07-24T10:37:09.360Z,61.88
2018-07-24T10:38:09.225Z,61.88
2018-07-24T10:39:09.234Z,61.88
2018-07-24T10:40:09.247Z,61.88
2018-07-24T10:41:09.263Z,61.88
2018-07-24T10:42:09.519Z,67.50
2018-07-24T10:43:09.323Z,61.88
2018-07-24T10:44:09.300Z,61.88
2018-07-24T10:45:09.316Z,61.88
2018-07-24T10:46:09.852Z,61.88
2018-07-24T10:47:09.472Z,61.88
2018-07-24T10:48:09.348Z,61.88
2018-07-24T10:49:09.352Z,61.88
2018-07-24T10:50:09.377Z,61.88
2018-07-24T10:51:09.393Z,61.88
2018-07-24T10:52:09.561Z,61.88
2018-07-24T10:53:09.430Z,61.88
2018-07-24T10:54:09.426Z,56.25
2018-07-24T10:55:09.437Z,56.25
2018-07-24T10:56:09.436Z,56.25
2018-07-24T10:57:09.567Z,56.25
2018-07-24T10:58:09.461Z,45.00
2018-07-24T10:59:09.538Z,45.00
2018-07-24T11:00:09.505Z,39.38
2018-07-24T11:01:09.520Z,45.00
2018-07-24T11:02:09.675Z,45.00
2018-07-24T11:03:09.541Z,45.00
2018-07-24T11:04:09.540Z,45.00
2018-07-24T11:05:09.600Z,45.00
2018-07-24T11:06:09.565Z,50.63
2018-07-24T11:07:09.724Z,50.63
2018-07-24T11:08:09.604Z,50.63
2018-07-24T11:09:09.623Z,50.63
2018-07-24T11:10:09.635Z,50.63
2018-07-24T11:11:09.649Z,50.63
2018-07-24T11:12:09.807Z,61.88
2018-07-24T11:13:09.666Z,61.88
2018-07-24T11:14:09.683Z,67.50
2018-07-24T11:15:09.691Z,84.38
2018-07-24T11:16:09.711Z,95.63
2018-07-24T11:17:09.876Z,106.88
2018-07-24T11:18:09.730Z,90.00
2018-07-24T11:19:09.762Z,73.13
2018-07-24T11:20:09.759Z,67.50
2018-07-24T11:21:09.779Z,67.50
2018-07-24T11:22:10.091Z,67.50
2018-07-24T11:23:09.898Z,67.50
2018-07-24T11:24:10.015Z,73.13
2018-07-24T11:25:09.827Z,73.13
2018-07-24T11:26:09.838Z,78.75
2018-07-24T11:27:09.846Z,84.38
2018-07-24T11:28:10.114Z,90.00
2018-07-24T11:29:09.881Z,78.75
2018-07-24T11:30:09.891Z,67.50
2018-07-24T11:31:09.907Z,61.88
2018-07-24T11:32:09.919Z,61.88
2018-07-24T11:33:10.070Z,61.88
2018-07-24T11:34:10.192Z,61.88
2018-07-24T11:35:09.962Z,61.88
2018-07-24T11:36:10.006Z,67.50
2018-07-24T11:37:09.986Z,67.50
2018-07-24T11:38:09.996Z,67.50
2018-07-24T11:39:10.359Z,73.13
2018-07-24T11:40:10.023Z,78.75
2018-07-24T11:41:10.051Z,90.00
2018-07-24T11:42:10.028Z,112.50
2018-07-24T11:43:10.064Z,112.50
2018-07-24T11:44:10.353Z,101.25
2018-07-24T11:45:10.091Z,106.88
2018-07-24T11:46:10.109Z,95.63
2018-07-24T11:47:10.119Z,95.63
2018-07-24T11:48:10.129Z,101.25
2018-07-24T11:49:10.218Z,95.63
2018-07-24T11:50:10.139Z,95.63
2018-07-24T11:51:10.163Z,101.25
2018-07-24T11:52:10.172Z,112.50
2018-07-24T11:53:10.194Z,123.75
2018-07-24T11:54:10.358Z,135.00
2018-07-24T11:55:10.232Z,151.88
2018-07-24T11:56:10.239Z,163.13
2018-07-24T11:57:10.253Z,146.25
2018-07-24T11:58:10.259Z,157.50
2018-07-24T11:59:10.356Z,168.75
2018-07-24T12:00:10.299Z,219.38
2018-07-24T12:01:10.286Z,247.50
2018-07-24T12:02:10.322Z,247.50
2018-07-24T12:03:10.333Z,236.25
2018-07-24T12:04:10.444Z,281.25
2018-07-24T12:05:10.564Z,247.50
2018-07-24T12:06:10.372Z,185.63
2018-07-24T12:07:10.378Z,168.75
2018-07-24T12:08:10.402Z,151.88
2018-07-24T12:09:10.519Z,140.63
2018-07-24T12:10:10.426Z,135.00
2018-07-24T12:11:10.449Z,135.00
2018-07-24T12:12:10.467Z,151.88
2018-07-24T12:13:10.474Z,180.00
2018-07-24T12:14:10.624Z,191.25
2018-07-24T12:15:10.564Z,196.88
2018-07-24T12:16:10.496Z,202.50
2018-07-24T12:17:10.532Z,213.75
2018-07-24T12:18:10.529Z,225.00
2018-07-24T12:19:10.709Z,230.63
2018-07-24T12:20:10.557Z,241.88
2018-07-24T12:21:10.596Z,264.38
2018-07-24T12:22:10.600Z,281.25
2018-07-24T12:23:10.597Z,253.13
2018-07-24T12:24:10.765Z,264.38
2018-07-24T12:25:10.645Z,270.00
2018-07-24T12:26:10.644Z,258.75
2018-07-24T12:27:10.732Z,270.00
2018-07-24T12:28:10.692Z,264.38
2018-07-24T12:29:10.812Z,258.75
2018-07-24T12:30:10.724Z,241.88
2018-07-24T12:31:10.742Z,213.75
2018-07-24T12:32:10.754Z,180.00
2018-07-24T12:33:10.772Z,157.50
2018-07-24T12:34:10.949Z,157.50
2018-07-24T12:35:10.784Z,174.38
2018-07-24T12:36:10.908Z,174.38
2018-07-24T12:37:10.833Z,174.38
2018-07-24T12:38:10.841Z,163.13
2018-07-24T12:39:10.865Z,146.25
2018-07-24T12:40:10.973Z,151.88
2018-07-24T12:41:10.878Z,168.75
2018-07-24T12:42:10.954Z,180.00
2018-07-24T12:43:10.928Z,180.00
2018-07-24T12:44:10.934Z,180.00
2018-07-24T12:45:11.102Z,185.63
2018-07-24T12:46:10.961Z,185.63
2018-07-24T12:47:10.976Z,174.38
2018-07-24T12:48:10.999Z,163.13
2018-07-24T12:49:11.000Z,157.50
2018-07-24T12:50:11.273Z,163.13
2018-07-24T12:51:11.041Z,174.38
2018-07-24T12:52:11.063Z,180.00
2018-07-24T12:53:11.273Z,185.63
2018-07-24T12:54:11.089Z,191.25
2018-07-24T12:55:11.351Z,196.88
2018-07-24T12:56:11.115Z,202.50
2018-07-24T12:57:11.132Z,213.75
2018-07-24T12:58:11.148Z,208.13
2018-07-24T12:59:11.164Z,202.50
2018-07-24T13:00:11.797Z,191.25
2018-07-24T13:01:11.204Z,180.00
2018-07-24T13:02:11.212Z,180.00
2018-07-24T13:03:11.221Z,185.63
2018-07-24T13:04:11.292Z,191.25
2018-07-24T13:05:11.409Z,185.63
2018-07-24T13:06:11.271Z,208.13
2018-07-24T13:07:11.288Z,225.00
2018-07-24T13:08:11.277Z,253.13
2018-07-24T13:09:11.337Z,253.13